sensor_id;sensor_type;location;lat;lon;timestamp;P1;durP1;ratioP1;P2;durP2;ratioP2
3369;SDS011;42042;51.948;7.628;2023-07-29T00:00:45;6.20;;;5.60;;
3369;SDS011;42042;51.948;7.628;2023-07-29T00:03:13;5.93;;;5.33;;
3369;SDS011;42042;51.948;7.628;2023-07-29T00:05:40;6.37;;;5.87;;
3369;SDS011;42042;51.948;7.628;2023-07-29T00:08:07;9.50;;;5.20;;
3369;SDS011;42042;51.948;7.628;2023-07-29T00:10:35;6.40;;;4.80;;
3369;SDS011;42042;51.948;7.628;2023-07-29T00:13:03;5.70;;;5.20;;
3369;SDS011;42042;51.948;7.628;2023-07-29T00:15:30;6.07;;;5.23;;
3369;SDS011;42042;51.948;7.628;2023-07-29T00:17:57;6.77;;;5.63;;
3369;SDS011;42042;51.948;7.628;2023-07-29T00:20:26;12.07;;;6.10;;
3369;SDS011;42042;51.948;7.628;2023-07-29T00:22:53;5.53;;;5.00;;
3369;SDS011;42042;51.948;7.628;2023-07-29T00:25:20;4.97;;;4.47;;
3369;SDS011;42042;51.948;7.628;2023-07-29T00:27:47;5.43;;;4.93;;
3369;SDS011;42042;51.948;7.628;2023-07-29T00:30:14;6.10;;;5.50;;
3369;SDS011;42042;51.948;7.628;2023-07-29T00:32:42;5.37;;;4.87;;
3369;SDS011;42042;51.948;7.628;2023-07-29T00:35:09;4.83;;;4.27;;
3369;SDS011;42042;51.948;7.628;2023-07-29T00:37:37;4.97;;;4.57;;
3369;SDS011;42042;51.948;7.628;2023-07-29T00:40:06;6.43;;;5.00;;
3369;SDS011;42042;51.948;7.628;2023-07-29T00:42:37;5.40;;;5.00;;
3369;SDS011;42042;51.948;7.628;2023-07-29T00:45:05;7.63;;;4.90;;
3369;SDS011;42042;51.948;7.628;2023-07-29T00:47:32;5.40;;;4.90;;
3369;SDS011;42042;51.948;7.628;2023-07-29T00:50:00;4.70;;;4.30;;
3369;SDS011;42042;51.948;7.628;2023-07-29T00:52:27;4.47;;;4.17;;
3369;SDS011;42042;51.948;7.628;2023-07-29T00:54:55;5.63;;;5.00;;
3369;SDS011;42042;51.948;7.628;2023-07-29T00:57:23;5.40;;;4.60;;
3369;SDS011;42042;51.948;7.628;2023-07-29T00:59:51;5.13;;;4.70;;
3369;SDS011;42042;51.948;7.628;2023-07-29T01:02:18;5.30;;;4.80;;
3369;SDS011;42042;51.948;7.628;2023-07-29T01:04:49;6.77;;;5.00;;
3369;SDS011;42042;51.948;7.628;2023-07-29T01:07:19;5.30;;;4.80;;
3369;SDS011;42042;51.948;7.628;2023-07-29T01:09:50;6.10;;;5.50;;
3369;SDS011;42042;51.948;7.628;2023-07-29T01:12:27;5.13;;;4.73;;
3369;SDS011;42042;51.948;7.628;2023-07-29T01:14:55;5.33;;;4.80;;
3369;SDS011;42042;51.948;7.628;2023-07-29T01:17:28;6.70;;;5.93;;
3369;SDS011;42042;51.948;7.628;2023-07-29T01:19:59;5.73;;;5.13;;
3369;SDS011;42042;51.948;7.628;2023-07-29T01:22:28;6.00;;;5.60;;
3369;SDS011;42042;51.948;7.628;2023-07-29T01:24:58;6.93;;;6.33;;
3369;SDS011;42042;51.948;7.628;2023-07-29T01:27:25;6.60;;;6.00;;
3369;SDS011;42042;51.948;7.628;2023-07-29T01:29:52;5.93;;;5.30;;
3369;SDS011;42042;51.948;7.628;2023-07-29T01:32:23;6.80;;;6.17;;
3369;SDS011;42042;51.948;7.628;2023-07-29T01:34:55;7.00;;;6.27;;
3369;SDS011;42042;51.948;7.628;2023-07-29T01:37:25;6.50;;;5.77;;
3369;SDS011;42042;51.948;7.628;2023-07-29T01:39:54;6.57;;;6.00;;
3369;SDS011;42042;51.948;7.628;2023-07-29T01:42:24;8.47;;;6.47;;
3369;SDS011;42042;51.948;7.628;2023-07-29T01:44:51;9.07;;;6.30;;
3369;SDS011;42042;51.948;7.628;2023-07-29T01:47:20;6.60;;;5.80;;
3369;SDS011;42042;51.948;7.628;2023-07-29T01:49:48;7.07;;;6.37;;
3369;SDS011;42042;51.948;7.628;2023-07-29T01:52:15;8.40;;;6.63;;
3369;SDS011;42042;51.948;7.628;2023-07-29T01:54:43;6.83;;;6.10;;
3369;SDS011;42042;51.948;7.628;2023-07-29T01:57:10;7.53;;;5.50;;
3369;SDS011;42042;51.948;7.628;2023-07-29T01:59:38;6.17;;;5.30;;
3369;SDS011;42042;51.948;7.628;2023-07-29T02:02:06;5.70;;;5.30;;
3369;SDS011;42042;51.948;7.628;2023-07-29T02:04:33;6.10;;;4.90;;
3369;SDS011;42042;51.948;7.628;2023-07-29T02:07:01;5.90;;;5.40;;
3369;SDS011;42042;51.948;7.628;2023-07-29T02:09:28;7.07;;;5.63;;
3369;SDS011;42042;51.948;7.628;2023-07-29T02:11:56;6.47;;;5.87;;
3369;SDS011;42042;51.948;7.628;2023-07-29T02:14:23;6.40;;;5.90;;
3369;SDS011;42042;51.948;7.628;2023-07-29T02:16:52;6.07;;;5.57;;
3369;SDS011;42042;51.948;7.628;2023-07-29T02:19:19;5.60;;;5.10;;
3369;SDS011;42042;51.948;7.628;2023-07-29T02:21:46;5.60;;;5.10;;
3369;SDS011;42042;51.948;7.628;2023-07-29T02:24:13;5.53;;;5.10;;
3369;SDS011;42042;51.948;7.628;2023-07-29T02:26:41;6.10;;;5.60;;
3369;SDS011;42042;51.948;7.628;2023-07-29T02:29:08;6.10;;;5.63;;
3369;SDS011;42042;51.948;7.628;2023-07-29T02:31:35;7.80;;;5.53;;
3369;SDS011;42042;51.948;7.628;2023-07-29T02:34:04;6.37;;;5.80;;
3369;SDS011;42042;51.948;7.628;2023-07-29T02:36:31;6.77;;;6.07;;
3369;SDS011;42042;51.948;7.628;2023-07-29T02:38:59;6.07;;;5.57;;
3369;SDS011;42042;51.948;7.628;2023-07-29T02:41:26;8.13;;;6.03;;
3369;SDS011;42042;51.948;7.628;2023-07-29T02:43:54;6.70;;;6.10;;
3369;SDS011;42042;51.948;7.628;2023-07-29T02:46:21;6.60;;;6.00;;
3369;SDS011;42042;51.948;7.628;2023-07-29T02:48:47;6.17;;;5.73;;
3369;SDS011;42042;51.948;7.628;2023-07-29T02:51:16;6.30;;;5.77;;
3369;SDS011;42042;51.948;7.628;2023-07-29T02:53:43;6.90;;;6.30;;
3369;SDS011;42042;51.948;7.628;2023-07-29T02:56:10;7.07;;;6.37;;
3369;SDS011;42042;51.948;7.628;2023-07-29T02:58:37;6.57;;;5.80;;
3369;SDS011;42042;51.948;7.628;2023-07-29T03:01:05;9.20;;;6.10;;
3369;SDS011;42042;51.948;7.628;2023-07-29T03:03:33;7.40;;;6.70;;
3369;SDS011;42042;51.948;7.628;2023-07-29T03:06:01;6.93;;;6.40;;
3369;SDS011;42042;51.948;7.628;2023-07-29T03:08:30;6.70;;;6.10;;
3369;SDS011;42042;51.948;7.628;2023-07-29T03:10:57;7.33;;;6.73;;
3369;SDS011;42042;51.948;7.628;2023-07-29T03:13:25;7.90;;;7.10;;
3369;SDS011;42042;51.948;7.628;2023-07-29T03:15:52;8.30;;;7.70;;
3369;SDS011;42042;51.948;7.628;2023-07-29T03:18:19;6.87;;;6.27;;
3369;SDS011;42042;51.948;7.628;2023-07-29T03:20:46;7.20;;;6.60;;
3369;SDS011;42042;51.948;7.628;2023-07-29T03:23:15;8.43;;;6.40;;
3369;SDS011;42042;51.948;7.628;2023-07-29T03:25:44;7.50;;;6.90;;
3369;SDS011;42042;51.948;7.628;2023-07-29T03:28:15;7.17;;;6.60;;
3369;SDS011;42042;51.948;7.628;2023-07-29T03:30:43;7.80;;;7.10;;
3369;SDS011;42042;51.948;7.628;2023-07-29T03:33:10;8.20;;;7.33;;
3369;SDS011;42042;51.948;7.628;2023-07-29T03:35:37;10.17;;;7.53;;
3369;SDS011;42042;51.948;7.628;2023-07-29T03:38:04;7.23;;;6.63;;
3369;SDS011;42042;51.948;7.628;2023-07-29T03:40:31;8.50;;;7.70;;
3369;SDS011;42042;51.948;7.628;2023-07-29T03:43:00;9.30;;;8.50;;
3369;SDS011;42042;51.948;7.628;2023-07-29T03:45:27;9.50;;;8.60;;
3369;SDS011;42042;51.948;7.628;2023-07-29T03:47:54;9.03;;;8.17;;
3369;SDS011;42042;51.948;7.628;2023-07-29T03:50:22;8.53;;;7.80;;
3369;SDS011;42042;51.948;7.628;2023-07-29T03:52:49;8.03;;;7.33;;
3369;SDS011;42042;51.948;7.628;2023-07-29T03:55:16;9.13;;;8.43;;
3369;SDS011;42042;51.948;7.628;2023-07-29T03:57:44;10.77;;;8.67;;
3369;SDS011;42042;51.948;7.628;2023-07-29T04:00:12;9.47;;;8.53;;
3369;SDS011;42042;51.948;7.628;2023-07-29T04:02:40;9.27;;;8.33;;
3369;SDS011;42042;51.948;7.628;2023-07-29T04:05:08;8.57;;;7.77;;
3369;SDS011;42042;51.948;7.628;2023-07-29T04:07:35;9.37;;;8.57;;
3369;SDS011;42042;51.948;7.628;2023-07-29T04:10:03;8.23;;;7.43;;
3369;SDS011;42042;51.948;7.628;2023-07-29T04:12:31;9.50;;;8.47;;
3369;SDS011;42042;51.948;7.628;2023-07-29T04:14:58;9.67;;;8.77;;
3369;SDS011;42042;51.948;7.628;2023-07-29T04:17:27;9.23;;;8.33;;
3369;SDS011;42042;51.948;7.628;2023-07-29T04:19:54;9.90;;;9.10;;
3369;SDS011;42042;51.948;7.628;2023-07-29T04:22:21;9.20;;;8.50;;
3369;SDS011;42042;51.948;7.628;2023-07-29T04:24:48;11.20;;;9.97;;
3369;SDS011;42042;51.948;7.628;2023-07-29T04:27:16;10.93;;;10.03;;
3369;SDS011;42042;51.948;7.628;2023-07-29T04:29:43;10.00;;;9.00;;
3369;SDS011;42042;51.948;7.628;2023-07-29T04:32:10;10.07;;;9.27;;
3369;SDS011;42042;51.948;7.628;2023-07-29T04:34:38;9.07;;;8.30;;
3369;SDS011;42042;51.948;7.628;2023-07-29T04:37:06;9.50;;;8.67;;
3369;SDS011;42042;51.948;7.628;2023-07-29T04:39:33;9.07;;;8.27;;
3369;SDS011;42042;51.948;7.628;2023-07-29T04:42:00;9.67;;;8.87;;
3369;SDS011;42042;51.948;7.628;2023-07-29T04:44:27;9.37;;;8.57;;
3369;SDS011;42042;51.948;7.628;2023-07-29T04:46:54;10.23;;;8.37;;
3369;SDS011;42042;51.948;7.628;2023-07-29T04:49:22;9.80;;;8.80;;
3369;SDS011;42042;51.948;7.628;2023-07-29T04:51:50;8.83;;;8.10;;
3369;SDS011;42042;51.948;7.628;2023-07-29T04:54:17;9.33;;;8.43;;
3369;SDS011;42042;51.948;7.628;2023-07-29T04:56:45;9.07;;;8.23;;
3369;SDS011;42042;51.948;7.628;2023-07-29T04:59:12;13.13;;;9.07;;
3369;SDS011;42042;51.948;7.628;2023-07-29T05:01:40;9.00;;;8.13;;
3369;SDS011;42042;51.948;7.628;2023-07-29T05:04:08;9.97;;;8.30;;
3369;SDS011;42042;51.948;7.628;2023-07-29T05:06:35;8.70;;;8.00;;
3369;SDS011;42042;51.948;7.628;2023-07-29T05:09:13;9.33;;;8.47;;
3369;SDS011;42042;51.948;7.628;2023-07-29T05:11:40;10.40;;;9.50;;
3369;SDS011;42042;51.948;7.628;2023-07-29T05:14:08;10.43;;;7.63;;
3369;SDS011;42042;51.948;7.628;2023-07-29T05:16:35;13.10;;;8.73;;
3369;SDS011;42042;51.948;7.628;2023-07-29T05:19:03;14.00;;;8.70;;
3369;SDS011;42042;51.948;7.628;2023-07-29T05:21:30;9.77;;;8.87;;
3369;SDS011;42042;51.948;7.628;2023-07-29T05:23:57;10.47;;;9.00;;
3369;SDS011;42042;51.948;7.628;2023-07-29T05:26:26;9.87;;;8.90;;
3369;SDS011;42042;51.948;7.628;2023-07-29T05:28:53;9.53;;;8.73;;
3369;SDS011;42042;51.948;7.628;2023-07-29T05:31:20;9.63;;;8.87;;
3369;SDS011;42042;51.948;7.628;2023-07-29T05:33:47;10.33;;;9.43;;
3369;SDS011;42042;51.948;7.628;2023-07-29T05:36:14;11.30;;;10.10;;
3369;SDS011;42042;51.948;7.628;2023-07-29T05:38:47;10.50;;;9.50;;
3369;SDS011;42042;51.948;7.628;2023-07-29T05:41:15;10.93;;;8.50;;
3369;SDS011;42042;51.948;7.628;2023-07-29T05:43:43;10.00;;;9.10;;
3369;SDS011;42042;51.948;7.628;2023-07-29T05:46:10;10.90;;;9.80;;
3369;SDS011;42042;51.948;7.628;2023-07-29T05:48:37;11.53;;;10.37;;
3369;SDS011;42042;51.948;7.628;2023-07-29T05:51:05;12.00;;;10.80;;
3369;SDS011;42042;51.948;7.628;2023-07-29T05:53:32;11.17;;;10.17;;
3369;SDS011;42042;51.948;7.628;2023-07-29T05:55:59;10.47;;;9.50;;
3369;SDS011;42042;51.948;7.628;2023-07-29T05:58:26;12.70;;;11.27;;
3369;SDS011;42042;51.948;7.628;2023-07-29T06:00:57;13.50;;;10.13;;
3369;SDS011;42042;51.948;7.628;2023-07-29T06:03:24;11.17;;;9.97;;
3369;SDS011;42042;51.948;7.628;2023-07-29T06:05:51;10.90;;;9.90;;
3369;SDS011;42042;51.948;7.628;2023-07-29T06:08:19;12.27;;;11.10;;
3369;SDS011;42042;51.948;7.628;2023-07-29T06:10:46;11.20;;;10.20;;
3369;SDS011;42042;51.948;7.628;2023-07-29T06:13:13;12.17;;;9.23;;
3369;SDS011;42042;51.948;7.628;2023-07-29T06:15:40;8.83;;;8.13;;
3369;SDS011;42042;51.948;7.628;2023-07-29T06:18:09;12.73;;;9.93;;
3369;SDS011;42042;51.948;7.628;2023-07-29T06:20:36;9.90;;;9.07;;
3369;SDS011;42042;51.948;7.628;2023-07-29T06:23:04;10.27;;;9.37;;
3369;SDS011;42042;51.948;7.628;2023-07-29T06:25:31;9.60;;;8.80;;
3369;SDS011;42042;51.948;7.628;2023-07-29T06:27:58;11.10;;;9.17;;
3369;SDS011;42042;51.948;7.628;2023-07-29T06:30:25;10.10;;;9.10;;
3369;SDS011;42042;51.948;7.628;2023-07-29T06:32:52;11.30;;;10.20;;
3369;SDS011;42042;51.948;7.628;2023-07-29T06:35:21;11.67;;;10.67;;
3369;SDS011;42042;51.948;7.628;2023-07-29T06:37:48;11.60;;;10.53;;
3369;SDS011;42042;51.948;7.628;2023-07-29T06:40:15;10.87;;;9.90;;
3369;SDS011;42042;51.948;7.628;2023-07-29T06:42:43;10.47;;;9.47;;
3369;SDS011;42042;51.948;7.628;2023-07-29T06:45:10;11.47;;;10.37;;
3369;SDS011;42042;51.948;7.628;2023-07-29T06:47:37;10.40;;;9.40;;
3369;SDS011;42042;51.948;7.628;2023-07-29T06:50:05;10.00;;;9.07;;
3369;SDS011;42042;51.948;7.628;2023-07-29T06:52:33;10.43;;;9.53;;
3369;SDS011;42042;51.948;7.628;2023-07-29T06:55:02;10.23;;;8.80;;
3369;SDS011;42042;51.948;7.628;2023-07-29T06:57:29;9.03;;;8.33;;
3369;SDS011;42042;51.948;7.628;2023-07-29T06:59:56;7.43;;;6.60;;
3369;SDS011;42042;51.948;7.628;2023-07-29T07:02:23;6.50;;;5.83;;
3369;SDS011;42042;51.948;7.628;2023-07-29T07:04:50;5.30;;;4.80;;
3369;SDS011;42042;51.948;7.628;2023-07-29T07:07:17;6.63;;;4.60;;
3369;SDS011;42042;51.948;7.628;2023-07-29T07:09:46;3.13;;;2.93;;
3369;SDS011;42042;51.948;7.628;2023-07-29T07:12:13;4.20;;;3.20;;
3369;SDS011;42042;51.948;7.628;2023-07-29T07:14:40;3.33;;;2.63;;
3369;SDS011;42042;51.948;7.628;2023-07-29T07:17:08;2.67;;;2.47;;
3369;SDS011;42042;51.948;7.628;2023-07-29T07:19:35;3.43;;;3.10;;
3369;SDS011;42042;51.948;7.628;2023-07-29T07:22:02;3.20;;;2.70;;
3369;SDS011;42042;51.948;7.628;2023-07-29T07:24:30;4.57;;;3.20;;
3369;SDS011;42042;51.948;7.628;2023-07-29T07:26:58;3.17;;;2.90;;
3369;SDS011;42042;51.948;7.628;2023-07-29T07:29:25;3.50;;;2.67;;
3369;SDS011;42042;51.948;7.628;2023-07-29T07:31:53;3.13;;;2.80;;
3369;SDS011;42042;51.948;7.628;2023-07-29T07:34:20;2.40;;;2.20;;
3369;SDS011;42042;51.948;7.628;2023-07-29T07:36:48;2.57;;;2.20;;
3369;SDS011;42042;51.948;7.628;2023-07-29T07:39:15;4.37;;;2.27;;
3369;SDS011;42042;51.948;7.628;2023-07-29T07:41:42;2.50;;;2.30;;
3369;SDS011;42042;51.948;7.628;2023-07-29T07:44:11;2.20;;;2.10;;
3369;SDS011;42042;51.948;7.628;2023-07-29T07:46:40;2.30;;;2.10;;
3369;SDS011;42042;51.948;7.628;2023-07-29T07:49:07;3.07;;;2.77;;
3369;SDS011;42042;51.948;7.628;2023-07-29T07:51:35;2.37;;;2.17;;
3369;SDS011;42042;51.948;7.628;2023-07-29T07:54:02;3.00;;;2.80;;
3369;SDS011;42042;51.948;7.628;2023-07-29T07:56:29;2.87;;;2.67;;
3369;SDS011;42042;51.948;7.628;2023-07-29T07:58:56;2.70;;;2.50;;
3369;SDS011;42042;51.948;7.628;2023-07-29T08:01:25;3.37;;;2.80;;
3369;SDS011;42042;51.948;7.628;2023-07-29T08:03:52;2.63;;;2.43;;
3369;SDS011;42042;51.948;7.628;2023-07-29T08:06:19;5.00;;;2.70;;
3369;SDS011;42042;51.948;7.628;2023-07-29T08:08:46;2.87;;;2.50;;
3369;SDS011;42042;51.948;7.628;2023-07-29T08:11:14;2.60;;;2.40;;
3369;SDS011;42042;51.948;7.628;2023-07-29T08:13:41;3.00;;;2.80;;
3369;SDS011;42042;51.948;7.628;2023-07-29T08:16:08;2.50;;;2.30;;
3369;SDS011;42042;51.948;7.628;2023-07-29T08:18:36;3.00;;;2.80;;
3369;SDS011;42042;51.948;7.628;2023-07-29T08:21:04;2.80;;;2.60;;
3369;SDS011;42042;51.948;7.628;2023-07-29T08:23:32;2.80;;;2.60;;
3369;SDS011;42042;51.948;7.628;2023-07-29T08:26:00;2.83;;;2.63;;
3369;SDS011;42042;51.948;7.628;2023-07-29T08:28:29;3.10;;;2.60;;
3369;SDS011;42042;51.948;7.628;2023-07-29T08:30:57;2.63;;;2.37;;
3369;SDS011;42042;51.948;7.628;2023-07-29T08:33:24;4.53;;;1.90;;
3369;SDS011;42042;51.948;7.628;2023-07-29T08:35:53;2.43;;;2.23;;
3369;SDS011;42042;51.948;7.628;2023-07-29T08:38:20;3.20;;;2.13;;
3369;SDS011;42042;51.948;7.628;2023-07-29T08:40:49;2.53;;;2.33;;
3369;SDS011;42042;51.948;7.628;2023-07-29T08:43:19;4.93;;;1.80;;
3369;SDS011;42042;51.948;7.628;2023-07-29T08:45:47;2.00;;;1.80;;
3369;SDS011;42042;51.948;7.628;2023-07-29T08:48:15;2.20;;;2.00;;
3369;SDS011;42042;51.948;7.628;2023-07-29T08:50:46;2.37;;;1.73;;
3369;SDS011;42042;51.948;7.628;2023-07-29T08:53:15;2.17;;;2.07;;
3369;SDS011;42042;51.948;7.628;2023-07-29T08:55:42;2.47;;;2.27;;
3369;SDS011;42042;51.948;7.628;2023-07-29T08:58:09;2.17;;;1.90;;
3369;SDS011;42042;51.948;7.628;2023-07-29T09:00:37;2.90;;;2.23;;
3369;SDS011;42042;51.948;7.628;2023-07-29T09:03:05;2.00;;;1.90;;
3369;SDS011;42042;51.948;7.628;2023-07-29T09:05:33;1.70;;;1.60;;
3369;SDS011;42042;51.948;7.628;2023-07-29T09:08:00;2.50;;;1.57;;
3369;SDS011;42042;51.948;7.628;2023-07-29T09:10:30;1.80;;;1.70;;
3369;SDS011;42042;51.948;7.628;2023-07-29T09:13:02;1.70;;;1.60;;
3369;SDS011;42042;51.948;7.628;2023-07-29T09:15:29;2.17;;;1.50;;
3369;SDS011;42042;51.948;7.628;2023-07-29T09:17:57;1.40;;;1.30;;
3369;SDS011;42042;51.948;7.628;2023-07-29T09:20:25;2.40;;;1.70;;
3369;SDS011;42042;51.948;7.628;2023-07-29T09:22:53;1.40;;;1.30;;
3369;SDS011;42042;51.948;7.628;2023-07-29T09:25:24;1.73;;;1.63;;
3369;SDS011;42042;51.948;7.628;2023-07-29T09:27:52;1.50;;;1.40;;
3369;SDS011;42042;51.948;7.628;2023-07-29T09:30:20;1.60;;;1.50;;
3369;SDS011;42042;51.948;7.628;2023-07-29T09:32:47;1.40;;;1.30;;
3369;SDS011;42042;51.948;7.628;2023-07-29T09:35:14;1.60;;;1.50;;
3369;SDS011;42042;51.948;7.628;2023-07-29T09:37:41;1.77;;;1.67;;
3369;SDS011;42042;51.948;7.628;2023-07-29T09:40:12;1.40;;;1.30;;
3369;SDS011;42042;51.948;7.628;2023-07-29T09:42:40;1.60;;;1.50;;
3369;SDS011;42042;51.948;7.628;2023-07-29T09:45:20;4.13;;;1.70;;
3369;SDS011;42042;51.948;7.628;2023-07-29T09:47:47;2.20;;;1.40;;
3369;SDS011;42042;51.948;7.628;2023-07-29T09:50:14;1.53;;;1.43;;
3369;SDS011;42042;51.948;7.628;2023-07-29T09:52:42;1.90;;;1.80;;
3369;SDS011;42042;51.948;7.628;2023-07-29T09:55:10;1.70;;;1.60;;
3369;SDS011;42042;51.948;7.628;2023-07-29T09:57:38;1.77;;;1.67;;
3369;SDS011;42042;51.948;7.628;2023-07-29T10:00:06;1.50;;;1.27;;
3369;SDS011;42042;51.948;7.628;2023-07-29T10:02:37;1.70;;;1.60;;
3369;SDS011;42042;51.948;7.628;2023-07-29T10:05:11;1.70;;;1.60;;
3369;SDS011;42042;51.948;7.628;2023-07-29T10:07:38;4.13;;;1.60;;
3369;SDS011;42042;51.948;7.628;2023-07-29T10:10:06;1.87;;;1.70;;
3369;SDS011;42042;51.948;7.628;2023-07-29T10:12:34;1.50;;;1.40;;
3369;SDS011;42042;51.948;7.628;2023-07-29T10:15:02;2.20;;;2.00;;
3369;SDS011;42042;51.948;7.628;2023-07-29T10:17:29;2.03;;;1.67;;
3369;SDS011;42042;51.948;7.628;2023-07-29T10:19:58;1.33;;;1.23;;
3369;SDS011;42042;51.948;7.628;2023-07-29T10:22:27;1.57;;;1.47;;
3369;SDS011;42042;51.948;7.628;2023-07-29T10:24:56;1.60;;;1.50;;
3369;SDS011;42042;51.948;7.628;2023-07-29T10:27:26;1.57;;;1.47;;
3369;SDS011;42042;51.948;7.628;2023-07-29T10:29:54;1.67;;;1.57;;
3369;SDS011;42042;51.948;7.628;2023-07-29T10:32:23;1.87;;;1.73;;
3369;SDS011;42042;51.948;7.628;2023-07-29T10:34:52;2.30;;;1.50;;
3369;SDS011;42042;51.948;7.628;2023-07-29T10:37:20;1.93;;;1.70;;
3369;SDS011;42042;51.948;7.628;2023-07-29T10:39:52;1.50;;;1.40;;
3369;SDS011;42042;51.948;7.628;2023-07-29T10:42:19;1.63;;;1.53;;
3369;SDS011;42042;51.948;7.628;2023-07-29T10:44:47;2.40;;;1.63;;
3369;SDS011;42042;51.948;7.628;2023-07-29T10:47:15;1.50;;;1.23;;
3369;SDS011;42042;51.948;7.628;2023-07-29T10:49:43;1.47;;;1.37;;
3369;SDS011;42042;51.948;7.628;2023-07-29T10:52:12;1.33;;;1.23;;
3369;SDS011;42042;51.948;7.628;2023-07-29T10:54:45;1.90;;;1.70;;
3369;SDS011;42042;51.948;7.628;2023-07-29T10:57:13;1.53;;;1.30;;
3369;SDS011;42042;51.948;7.628;2023-07-29T10:59:40;1.70;;;1.60;;
3369;SDS011;42042;51.948;7.628;2023-07-29T11:02:15;1.50;;;1.40;;
3369;SDS011;42042;51.948;7.628;2023-07-29T11:04:47;1.57;;;1.47;;
3369;SDS011;42042;51.948;7.628;2023-07-29T11:07:18;1.83;;;1.73;;
3369;SDS011;42042;51.948;7.628;2023-07-29T11:09:53;1.60;;;1.50;;
3369;SDS011;42042;51.948;7.628;2023-07-29T11:12:37;1.70;;;1.60;;
3369;SDS011;42042;51.948;7.628;2023-07-29T11:15:12;1.83;;;1.73;;
3369;SDS011;42042;51.948;7.628;2023-07-29T11:17:39;2.10;;;2.00;;
3369;SDS011;42042;51.948;7.628;2023-07-29T11:20:07;2.10;;;1.73;;
3369;SDS011;42042;51.948;7.628;2023-07-29T11:22:35;1.97;;;1.77;;
3369;SDS011;42042;51.948;7.628;2023-07-29T11:25:04;1.50;;;1.40;;
3369;SDS011;42042;51.948;7.628;2023-07-29T11:27:31;1.97;;;1.53;;
3369;SDS011;42042;51.948;7.628;2023-07-29T11:29:58;4.90;;;1.63;;
3369;SDS011;42042;51.948;7.628;2023-07-29T11:32:26;2.20;;;1.70;;
3369;SDS011;42042;51.948;7.628;2023-07-29T11:34:54;1.93;;;1.73;;
3369;SDS011;42042;51.948;7.628;2023-07-29T11:37:21;1.67;;;1.57;;
3369;SDS011;42042;51.948;7.628;2023-07-29T11:39:48;1.73;;;1.63;;
3369;SDS011;42042;51.948;7.628;2023-07-29T11:42:17;2.50;;;1.60;;
3369;SDS011;42042;51.948;7.628;2023-07-29T11:44:45;1.97;;;1.83;;
3369;SDS011;42042;51.948;7.628;2023-07-29T11:47:12;1.83;;;1.73;;
3369;SDS011;42042;51.948;7.628;2023-07-29T11:49:40;1.80;;;1.70;;
3369;SDS011;42042;51.948;7.628;2023-07-29T11:52:08;1.60;;;1.50;;
3369;SDS011;42042;51.948;7.628;2023-07-29T11:54:36;1.80;;;1.70;;
3369;SDS011;42042;51.948;7.628;2023-07-29T11:57:03;2.27;;;2.07;;
3369;SDS011;42042;51.948;7.628;2023-07-29T11:59:33;5.30;;;1.60;;
3369;SDS011;42042;51.948;7.628;2023-07-29T12:02:00;1.60;;;1.50;;
3369;SDS011;42042;51.948;7.628;2023-07-29T12:04:28;2.40;;;1.50;;
3369;SDS011;42042;51.948;7.628;2023-07-29T12:06:55;1.90;;;1.70;;
3369;SDS011;42042;51.948;7.628;2023-07-29T12:09:23;1.77;;;1.67;;
3369;SDS011;42042;51.948;7.628;2023-07-29T12:11:52;2.27;;;1.90;;
3369;SDS011;42042;51.948;7.628;2023-07-29T12:14:19;1.80;;;1.70;;
3369;SDS011;42042;51.948;7.628;2023-07-29T12:16:48;1.70;;;1.60;;
3369;SDS011;42042;51.948;7.628;2023-07-29T12:19:17;1.70;;;1.60;;
3369;SDS011;42042;51.948;7.628;2023-07-29T12:21:44;2.90;;;2.00;;
3369;SDS011;42042;51.948;7.628;2023-07-29T12:24:11;2.23;;;2.10;;
3369;SDS011;42042;51.948;7.628;2023-07-29T12:26:39;2.60;;;1.80;;
3369;SDS011;42042;51.948;7.628;2023-07-29T12:29:12;1.90;;;1.80;;
3369;SDS011;42042;51.948;7.628;2023-07-29T12:31:40;1.87;;;1.77;;
3369;SDS011;42042;51.948;7.628;2023-07-29T12:34:08;2.13;;;1.90;;
3369;SDS011;42042;51.948;7.628;2023-07-29T12:36:43;2.37;;;2.03;;
3369;SDS011;42042;51.948;7.628;2023-07-29T12:39:17;2.63;;;2.00;;
3369;SDS011;42042;51.948;7.628;2023-07-29T12:41:44;2.10;;;1.90;;
3369;SDS011;42042;51.948;7.628;2023-07-29T12:44:11;2.30;;;1.93;;
3369;SDS011;42042;51.948;7.628;2023-07-29T12:46:39;2.10;;;2.00;;
3369;SDS011;42042;51.948;7.628;2023-07-29T12:49:06;2.20;;;1.87;;
3369;SDS011;42042;51.948;7.628;2023-07-29T12:51:34;1.90;;;1.70;;
3369;SDS011;42042;51.948;7.628;2023-07-29T12:54:02;2.07;;;1.90;;
3369;SDS011;42042;51.948;7.628;2023-07-29T12:56:29;1.83;;;1.73;;
3369;SDS011;42042;51.948;7.628;2023-07-29T12:58:57;2.77;;;1.90;;
3369;SDS011;42042;51.948;7.628;2023-07-29T13:01:24;2.17;;;2.00;;
3369;SDS011;42042;51.948;7.628;2023-07-29T13:03:51;2.23;;;1.97;;
3369;SDS011;42042;51.948;7.628;2023-07-29T13:06:18;3.03;;;2.00;;
3369;SDS011;42042;51.948;7.628;2023-07-29T13:08:47;1.97;;;1.87;;
3369;SDS011;42042;51.948;7.628;2023-07-29T13:11:15;2.00;;;1.80;;
3369;SDS011;42042;51.948;7.628;2023-07-29T13:13:42;2.20;;;1.90;;
3369;SDS011;42042;51.948;7.628;2023-07-29T13:16:10;2.40;;;2.20;;
3369;SDS011;42042;51.948;7.628;2023-07-29T13:18:38;1.93;;;1.80;;
3369;SDS011;42042;51.948;7.628;2023-07-29T13:21:05;2.10;;;1.90;;
3369;SDS011;42042;51.948;7.628;2023-07-29T13:23:32;2.87;;;2.40;;
3369;SDS011;42042;51.948;7.628;2023-07-29T13:26:00;2.33;;;2.23;;
3369;SDS011;42042;51.948;7.628;2023-07-29T13:28:28;2.03;;;1.93;;
3369;SDS011;42042;51.948;7.628;2023-07-29T13:30:55;2.43;;;2.07;;
3369;SDS011;42042;51.948;7.628;2023-07-29T13:33:22;1.90;;;1.80;;
3369;SDS011;42042;51.948;7.628;2023-07-29T13:35:49;1.70;;;1.60;;
3369;SDS011;42042;51.948;7.628;2023-07-29T13:38:17;2.03;;;1.80;;
3369;SDS011;42042;51.948;7.628;2023-07-29T13:40:45;2.37;;;1.70;;
3369;SDS011;42042;51.948;7.628;2023-07-29T13:43:13;1.83;;;1.73;;
3369;SDS011;42042;51.948;7.628;2023-07-29T13:45:40;1.80;;;1.70;;
3369;SDS011;42042;51.948;7.628;2023-07-29T13:48:08;2.27;;;2.10;;
3369;SDS011;42042;51.948;7.628;2023-07-29T13:50:35;3.30;;;2.27;;
3369;SDS011;42042;51.948;7.628;2023-07-29T13:53:02;3.27;;;2.97;;
3369;SDS011;42042;51.948;7.628;2023-07-29T13:55:29;2.17;;;1.97;;
3369;SDS011;42042;51.948;7.628;2023-07-29T13:57:56;2.40;;;2.20;;
3369;SDS011;42042;51.948;7.628;2023-07-29T14:00:25;2.20;;;1.77;;
3369;SDS011;42042;51.948;7.628;2023-07-29T14:02:52;2.13;;;1.70;;
3369;SDS011;42042;51.948;7.628;2023-07-29T14:05:20;2.53;;;2.00;;
3369;SDS011;42042;51.948;7.628;2023-07-29T14:07:47;2.60;;;2.40;;
3369;SDS011;42042;51.948;7.628;2023-07-29T14:10:14;2.20;;;2.00;;
3369;SDS011;42042;51.948;7.628;2023-07-29T14:12:41;2.10;;;2.00;;
3369;SDS011;42042;51.948;7.628;2023-07-29T14:15:08;2.47;;;2.27;;
3369;SDS011;42042;51.948;7.628;2023-07-29T14:17:37;2.20;;;2.10;;
3369;SDS011;42042;51.948;7.628;2023-07-29T14:20:05;2.23;;;1.80;;
3369;SDS011;42042;51.948;7.628;2023-07-29T14:22:32;3.63;;;2.17;;
3369;SDS011;42042;51.948;7.628;2023-07-29T14:24:59;2.10;;;1.90;;
3369;SDS011;42042;51.948;7.628;2023-07-29T14:29:58;8.70;;;3.50;;
3369;SDS011;42042;51.948;7.628;2023-07-29T14:32:26;8.03;;;3.90;;
3369;SDS011;42042;51.948;7.628;2023-07-29T14:34:55;6.83;;;2.87;;
3369;SDS011;42042;51.948;7.628;2023-07-29T14:37:22;3.90;;;2.80;;
3369;SDS011;42042;51.948;7.628;2023-07-29T14:39:49;6.57;;;3.47;;
3369;SDS011;42042;51.948;7.628;2023-07-29T14:42:16;5.93;;;2.60;;
3369;SDS011;42042;51.948;7.628;2023-07-29T14:44:44;2.40;;;1.90;;
3369;SDS011;42042;51.948;7.628;2023-07-29T14:47:11;5.00;;;2.53;;
3369;SDS011;42042;51.948;7.628;2023-07-29T14:49:38;3.00;;;2.17;;
3369;SDS011;42042;51.948;7.628;2023-07-29T14:52:07;2.20;;;2.00;;
3369;SDS011;42042;51.948;7.628;2023-07-29T14:54:34;1.73;;;1.60;;
3369;SDS011;42042;51.948;7.628;2023-07-29T14:57:01;1.80;;;1.53;;
3369;SDS011;42042;51.948;7.628;2023-07-29T14:59:29;1.60;;;1.50;;
3369;SDS011;42042;51.948;7.628;2023-07-29T15:01:56;5.03;;;1.90;;
3369;SDS011;42042;51.948;7.628;2023-07-29T15:04:23;1.70;;;1.53;;
3369;SDS011;42042;51.948;7.628;2023-07-29T15:06:51;1.90;;;1.80;;